Detall de PIREP

Printer-friendly versionPDF version

[2012/02/24 16:45:00]
Flight IATA:CT1004
Pilot Number:037
Company ICAO:CAT
Aircraft Type:B752/E
PAX:147
Departing Airport: LEAM
Destination Airport: LEIB
Alternate Airport:LEPA
Online: VATSIM
Route:KALAB B700 AMR W820 VSJ W810 ALT B46 BRUNO
Flight Level:F240
No Slew and time accel
No pause
Crash detect
Detect pilot in Cockpit between each 30 and 45 minutes
16:45 Zero fuel Weight: 169793 Lbs, Fuel Weight: 16439 Lbs
16:45 VATSIM:LEAM 241600Z 17011KT CAVOK 15/08 Q1026
16:45 VATSIM:LEIB 241600Z 23004KT 200V260 CAVOK 15/10 Q1027 NOSIG
16:53 Parking Brakes off
17:11 Take-off
17:11 Take off Weight: 184633 Lbs
17:11 Wind: 117º @ 008 Knots Heading: 251º
17:11 POS N36º 50´ 40´´ W002º 22´ 03´´
17:12 Gear Up: 182 Knots
17:12 Flaps:2 at 183 Knots
17:12 Flaps:1 at 205 Knots
17:12 Flaps:0 at 214 Knots
17:24 TOC
17:24 Fuel Weight: 11861 Lb
17:27 Wind:132º@021 Knots Heading: 062º Ground Speed: 355 Knots Altitude 24379 ft
17:41 TOD
17:41 Fuel Weight: 9342 Lb
17:42 Wind:096º@021 Knots Heading: 068º Ground Speed: 435 Knots Altitude 23822 ft
17:55 Flaps:1 at 216 Knots
17:55 Flaps:2 at 196 Knots
17:56 Gear Down: 190 Knots
17:56 Flaps:3 at 168 Knots
17:57 Wind:239º@005 Knots Heading: 062º Ground Speed: 160 Knots Altitude 2785 ft
17:57 Flaps:4 at 151 Knots
17:57 Flaps:5 at 153 Knots
17:58 Flaps:6 at 165 Knots
17:58 TouchDown:Rate -389 ft/min Speed: 141 Knots
17:59 VATSIM:LEIB 241730Z 24003KT CAVOK 13/10 Q1027 NOSIG
17:59 Land
17:59 Wind:242º@003 Knots
17:59 Heading: 062º
17:59 Flight Duration: 00:48
17:59 Landing Weight: 178098 Lbs
17:59 POS N38º 52´ 24´´ E001º 22´ 28´´
18:02 Parking brakes on
18:02 Block to Block Duration: 01:09
18:02 Final Fuel: 7943 Lbls
18:02 Spent Fuel: 8496 Lbls
18:02 Flight Length: 170 NM
18:02 TOD LandLength: 36 NM

Exportar CSV

Powered by Drupal - Modified by Danger4k